Canadian Transport — VCLX — position and weather

sailwx.info

Track history (hours):
 
Tides and Currents Weather Stations Pressure Air Temp Water Temp Dewpoint Dewpoint Depression Visibility Wind Speed Wind Dir Waves Ship Positions

Canadian Transport

Last reported at 2017-Oct-16 00:47 UTC. Time now 2017-Oct-17 11:29 UTC.
Position N 47°00' W 091°40'.

Length 223 m; draft 7 m.

Type: Cargo ship. MMSI: 316001698.

Date/timePositionNaut miles runAvg speedWind from/ knotsBaromVisibWave heightAir tempDewpointWater temp
2017-Oct-16 00:47N 47°00' W 091°40'1 0.0
2017-Oct-15 03:28N 47°01' W 091°40'0 0.2
2017-Oct-15 02:59N 47°01' W 091°40'0 0.2
2017-Oct-15 02:30N 47°01' W 091°40'0 0.7
2017-Oct-15 02:00N 47°01' W 091°40'302 7.2
2017-Oct-13 07:50N 45°51' W 084°33'711.4
2017-Oct-13 07:12N 45°49' W 084°43'312.7
2017-Oct-13 07:00N 45°49' W 084°47'612.3
2017-Oct-13 06:30N 45°50' W 084°56'612.2
2017-Oct-13 06:00N 45°51' W 085°04'612.0
2017-Oct-13 05:30N 45°52' W 085°13'611.9
2017-Oct-13 05:00N 45°52' W 085°21'611.9
2017-Oct-13 04:30N 45°53' W 085°30'611.7
2017-Oct-13 04:00N 45°52' W 085°38'612.2
2017-Oct-13 03:30N 45°50' W 085°46'612.1
2017-Oct-13 03:00N 45°47' W 085°54'  
2017-Oct-06 21:05N 45°48' W 085°48'111.3
2017-Oct-06 21:00N 45°48' W 085°47'611.4
2017-Oct-06 20:30N 45°51' W 085°40'611.2
2017-Oct-06 20:00N 45°54' W 085°32'711.3
2017-Oct-06 19:21N 45°53' W 085°22'411.4
2017-Oct-06 19:00N 45°53' W 085°16'611.5
2017-Oct-06 18:30N 45°52' W 085°08'611.6
2017-Oct-06 18:00N 45°51' W 084°60'611.6
2017-Oct-06 17:30N 45°50' W 084°52'611.9
2017-Oct-06 17:00N 45°49' W 084°43'611.3
2017-Oct-06 16:30N 45°46' W 084°36'611.6
2017-Oct-06 15:59N 45°43' W 084°29'611.5
2017-Oct-06 15:30N 45°41' W 084°22'510.6
2017-Oct-06 15:00N 45°40' W 084°14'611.6
2017-Oct-06 14:30N 45°38' W 084°06'1215.3
2017-Oct-06 13:43N 45°33' W 083°51'1 3.2
2017-Oct-06 13:27N 45°32' W 083°50'4 9.7
2017-Oct-06 13:00N 45°30' W 083°44'611.5
2017-Oct-06 12:30N 45°28' W 083°37'611.4
2017-Oct-06 12:00N 45°26' W 083°29'611.2
2017-Oct-06 11:30N 45°22' W 083°23'  
Track history (hours):
 
Tides and Currents Weather Stations Pressure Air Temp Water Temp Dewpoint Dewpoint Depression Visibility Wind Speed Wind Dir Waves Ship Positions

Canadian Transport

Last reported at 2017-Oct-16 00:47 UTC. Time now 2017-Oct-17 11:29 UTC.
Position N 47°00' W 091°40'.

Length 223 m; draft 7 m.

Type: Cargo ship. MMSI: 316001698.

Date/timePositionNaut miles runAvg speedWind from/ knotsBaromVisibWave heightAir tempDewpointWater temp
2017-Oct-16 00:47N 47°00' W 091°40'1 0.0
2017-Oct-15 03:28N 47°01' W 091°40'0 0.2
2017-Oct-15 02:59N 47°01' W 091°40'0 0.2
2017-Oct-15 02:30N 47°01' W 091°40'0 0.7
2017-Oct-15 02:00N 47°01' W 091°40'302 7.2
2017-Oct-13 07:50N 45°51' W 084°33'711.4
2017-Oct-13 07:12N 45°49' W 084°43'312.7
2017-Oct-13 07:00N 45°49' W 084°47'612.3
2017-Oct-13 06:30N 45°50' W 084°56'612.2
2017-Oct-13 06:00N 45°51' W 085°04'612.0
2017-Oct-13 05:30N 45°52' W 085°13'611.9
2017-Oct-13 05:00N 45°52' W 085°21'611.9
2017-Oct-13 04:30N 45°53' W 085°30'611.7
2017-Oct-13 04:00N 45°52' W 085°38'612.2
2017-Oct-13 03:30N 45°50' W 085°46'612.1
2017-Oct-13 03:00N 45°47' W 085°54'  
2017-Oct-06 21:05N 45°48' W 085°48'111.3
2017-Oct-06 21:00N 45°48' W 085°47'611.4
2017-Oct-06 20:30N 45°51' W 085°40'611.2
2017-Oct-06 20:00N 45°54' W 085°32'711.3
2017-Oct-06 19:21N 45°53' W 085°22'411.4
2017-Oct-06 19:00N 45°53' W 085°16'611.5
2017-Oct-06 18:30N 45°52' W 085°08'611.6
2017-Oct-06 18:00N 45°51' W 084°60'611.6
2017-Oct-06 17:30N 45°50' W 084°52'611.9
2017-Oct-06 17:00N 45°49' W 084°43'611.3
2017-Oct-06 16:30N 45°46' W 084°36'611.6
2017-Oct-06 15:59N 45°43' W 084°29'611.5
2017-Oct-06 15:30N 45°41' W 084°22'510.6
2017-Oct-06 15:00N 45°40' W 084°14'611.6
2017-Oct-06 14:30N 45°38' W 084°06'1215.3
2017-Oct-06 13:43N 45°33' W 083°51'1 3.2
2017-Oct-06 13:27N 45°32' W 083°50'4 9.7
2017-Oct-06 13:00N 45°30' W 083°44'611.5
2017-Oct-06 12:30N 45°28' W 083°37'611.4
2017-Oct-06 12:00N 45°26' W 083°29'611.2
2017-Oct-06 11:30N 45°22' W 083°23'  

Dump ship's entire track history